DLH10A SCEL-SAEZ
Flight info
| Callsign | DLH10A |
|---|---|
| Flight time | 1h 23m |
| Altitude | 39000 |
| Route | ALBA7C ALBAL UM424 ASADA ASAD7UALBA7C ALBAL UM424 ASADA ASAD7U |
| Aircraft | A20N/M-SDE/L |
Departure
| Time | 2026-05-05 20:44 |
|---|---|
| Airport | Comodoro Arturo Merino Benítez International Airport (SCEL) |
Arrival
| Time | 2026-05-05 22:07 |
|---|---|
| Airport | Ezeiza International Airport - Ministro Pistarini (SAEZ) |
| Time | Latitude | Longitude | Altitude | Speed | Heading |
|---|---|---|---|---|---|
| 2026-05-05 20:23 | -33.39701 | -70.79068 | 1559 ft | 0 kts | 357° |
| 2026-05-05 20:34 | -33.39713 | -70.79067 | 1559 ft | 2 kts | 357° |
| 2026-05-05 20:34 | -33.39725 | -70.79067 | 1559 ft | 2 kts | 358° |
| 2026-05-05 20:34 | -33.39738 | -70.79068 | 1559 ft | 2 kts | 20° |
| 2026-05-05 20:34 | -33.39750 | -70.79075 | 1559 ft | 2 kts | 43° |
| 2026-05-05 20:35 | -33.39758 | -70.79086 | 1559 ft | 2 kts | 66° |
| 2026-05-05 20:35 | -33.39760 | -70.79091 | 1559 ft | 0 kts | 76° |
| 2026-05-05 20:37 | -33.39759 | -70.79086 | 1559 ft | 2 kts | 76° |
| 2026-05-05 20:37 | -33.39750 | -70.79040 | 1559 ft | 10 kts | 80° |
| 2026-05-05 20:38 | -33.39744 | -70.78929 | 1559 ft | 17 kts | 90° |
| 2026-05-05 20:38 | -33.39749 | -70.78801 | 1559 ft | 12 kts | 71° |
| 2026-05-05 20:38 | -33.39674 | -70.78777 | 1559 ft | 13 kts | 357° |
| 2026-05-05 20:38 | -33.39572 | -70.78782 | 1559 ft | 16 kts | 359° |
| 2026-05-05 20:39 | -33.39452 | -70.78788 | 1558 ft | 19 kts | 358° |
| 2026-05-05 20:39 | -33.39363 | -70.78793 | 1558 ft | 20 kts | 357° |
| 2026-05-05 20:39 | -33.39215 | -70.78801 | 1558 ft | 22 kts | 358° |
| 2026-05-05 20:39 | -33.39052 | -70.78808 | 1557 ft | 24 kts | 358° |
| 2026-05-05 20:40 | -33.38818 | -70.78820 | 1556 ft | 27 kts | 358° |
| 2026-05-05 20:40 | -33.38689 | -70.78827 | 1556 ft | 28 kts | 356° |
| 2026-05-05 20:40 | -33.38490 | -70.78839 | 1555 ft | 29 kts | 357° |
| 2026-05-05 20:40 | -33.38281 | -70.78850 | 1555 ft | 31 kts | 358° |
| 2026-05-05 20:41 | -33.38064 | -70.78863 | 1555 ft | 32 kts | 354° |
| 2026-05-05 20:41 | -33.37840 | -70.78875 | 1554 ft | 33 kts | 357° |
| 2026-05-05 20:41 | -33.37691 | -70.78884 | 1554 ft | 12 kts | 358° |
| 2026-05-05 20:41 | -33.37625 | -70.78829 | 1554 ft | 13 kts | 75° |
| 2026-05-05 20:42 | -33.37626 | -70.78714 | 1554 ft | 14 kts | 111° |
| 2026-05-05 20:42 | -33.37708 | -70.78666 | 1554 ft | 14 kts | 177° |
| 2026-05-05 20:42 | -33.37811 | -70.78661 | 1554 ft | 15 kts | 177° |
| 2026-05-05 20:42 | -33.37919 | -70.78655 | 1554 ft | 16 kts | 177° |
| 2026-05-05 20:43 | -33.38121 | -70.78640 | 1555 ft | 41 kts | 175° |
| 2026-05-05 20:43 | -33.38513 | -70.78622 | 1557 ft | 86 kts | 177° |
| 2026-05-05 20:43 | -33.39299 | -70.78581 | 1558 ft | 137 kts | 177° |
| 2026-05-05 20:43 | -33.40343 | -70.78537 | 1826 ft | 156 kts | 177° |
| 2026-05-05 20:44 | -33.41458 | -70.78551 | 2318 ft | 160 kts | 179° |
| 2026-05-05 20:44 | -33.42554 | -70.78587 | 2752 ft | 167 kts | 181° |
| 2026-05-05 20:44 | -33.43749 | -70.78574 | 3255 ft | 172 kts | 179° |
| 2026-05-05 20:44 | -33.44969 | -70.78499 | 3700 ft | 183 kts | 177° |
| 2026-05-05 20:45 | -33.47872 | -70.78256 | 4113 ft | 236 kts | 175° |
| 2026-05-05 20:45 | -33.49490 | -70.78110 | 4136 ft | 232 kts | 176° |
| 2026-05-05 20:45 | -33.51197 | -70.77974 | 4191 ft | 264 kts | 176° |
| 2026-05-05 20:46 | -33.53106 | -70.77792 | 4718 ft | 280 kts | 175° |
| 2026-05-05 20:46 | -33.55073 | -70.77603 | 5615 ft | 285 kts | 176° |
| 2026-05-05 20:46 | -33.57080 | -70.77467 | 6478 ft | 291 kts | 178° |
| 2026-05-05 20:46 | -33.59121 | -70.77353 | 7275 ft | 297 kts | 178° |
| 2026-05-05 20:47 | -33.61210 | -70.77238 | 8075 ft | 303 kts | 178° |
| 2026-05-05 20:47 | -33.63332 | -70.77115 | 8904 ft | 308 kts | 179° |
| 2026-05-05 20:47 | -33.65496 | -70.76985 | 9670 ft | 315 kts | 179° |
| 2026-05-05 20:47 | -33.67713 | -70.76850 | 10348 ft | 325 kts | 179° |
| 2026-05-05 20:48 | -33.70056 | -70.76709 | 10618 ft | 349 kts | 179° |
| 2026-05-05 20:48 | -33.72551 | -70.76440 | 10904 ft | 371 kts | 168° |
| 2026-05-05 20:48 | -33.74947 | -70.75220 | 11552 ft | 379 kts | 146° |
| 2026-05-05 20:48 | -33.76880 | -70.73061 | 12251 ft | 383 kts | 124° |
| 2026-05-05 20:49 | -33.78107 | -70.70230 | 12927 ft | 383 kts | 103° |
| 2026-05-05 20:49 | -33.78478 | -70.67109 | 13606 ft | 379 kts | 82° |
| 2026-05-05 20:49 | -33.77971 | -70.64047 | 14235 ft | 372 kts | 62° |
| 2026-05-05 20:49 | -33.76713 | -70.61419 | 14874 ft | 367 kts | 49° |
| 2026-05-05 20:50 | -33.75543 | -70.58614 | 15455 ft | 386 kts | 67° |
| 2026-05-05 20:50 | -33.75145 | -70.55333 | 16185 ft | 401 kts | 86° |
| 2026-05-05 20:50 | -33.75559 | -70.52044 | 16756 ft | 416 kts | 104° |
| 2026-05-05 20:50 | -33.76801 | -70.48847 | 17304 ft | 427 kts | 123° |
| 2026-05-05 20:51 | -33.78760 | -70.46146 | 17949 ft | 433 kts | 137° |
| 2026-05-05 20:51 | -33.80990 | -70.43687 | 18579 ft | 437 kts | 137° |
| 2026-05-05 20:51 | -33.83132 | -70.41065 | 19124 ft | 442 kts | 132° |
| 2026-05-05 20:51 | -33.85116 | -70.38244 | 19703 ft | 446 kts | 128° |
| 2026-05-05 20:52 | -33.87005 | -70.35268 | 20287 ft | 450 kts | 126° |
| 2026-05-05 20:52 | -33.88854 | -70.32201 | 20889 ft | 454 kts | 125° |
| 2026-05-05 20:52 | -33.90695 | -70.29066 | 21233 ft | 463 kts | 125° |
| 2026-05-05 20:52 | -33.92546 | -70.25882 | 21853 ft | 464 kts | 125° |
| 2026-05-05 20:53 | -33.94409 | -70.22684 | 22535 ft | 468 kts | 126° |
| 2026-05-05 20:53 | -33.96304 | -70.19457 | 23029 ft | 475 kts | 126° |
| 2026-05-05 20:53 | -33.98226 | -70.16180 | 23541 ft | 480 kts | 126° |
| 2026-05-05 20:53 | -34.00160 | -70.12876 | 23970 ft | 484 kts | 126° |
| 2026-05-05 20:54 | -34.02109 | -70.09535 | 24436 ft | 488 kts | 126° |
| 2026-05-05 20:54 | -34.04067 | -70.06176 | 24918 ft | 491 kts | 127° |
| 2026-05-05 20:54 | -34.06048 | -70.02776 | 25135 ft | 498 kts | 127° |
| 2026-05-05 20:54 | -34.08008 | -69.99414 | 25735 ft | 497 kts | 127° |
| 2026-05-05 20:55 | -34.10042 | -69.95924 | 26100 ft | 503 kts | 127° |
| 2026-05-05 20:55 | -34.12037 | -69.92498 | 26491 ft | 506 kts | 127° |
| 2026-05-05 20:55 | -34.14061 | -69.89007 | 26740 ft | 509 kts | 127° |
| 2026-05-05 20:55 | -34.16073 | -69.85508 | 27097 ft | 512 kts | 124° |
| 2026-05-05 20:56 | -34.17738 | -69.81745 | 27713 ft | 510 kts | 113° |
| 2026-05-05 20:56 | -34.18864 | -69.77666 | 27890 ft | 513 kts | 101° |
| 2026-05-05 20:56 | -34.19481 | -69.73414 | 28170 ft | 515 kts | 97° |
| 2026-05-05 20:56 | -34.20064 | -69.69126 | 28510 ft | 518 kts | 97° |
| 2026-05-05 20:57 | -34.20655 | -69.64823 | 28851 ft | 521 kts | 97° |
| 2026-05-05 20:57 | -34.21252 | -69.60486 | 29156 ft | 524 kts | 97° |
| 2026-05-05 20:57 | -34.21850 | -69.56133 | 29460 ft | 526 kts | 97° |
| 2026-05-05 20:57 | -34.22444 | -69.51797 | 29610 ft | 529 kts | 97° |
| 2026-05-05 20:58 | -34.23035 | -69.47448 | 30315 ft | 520 kts | 98° |
| 2026-05-05 20:58 | -34.23624 | -69.43136 | 30764 ft | 520 kts | 97° |
| 2026-05-05 20:58 | -34.24213 | -69.38806 | 30913 ft | 524 kts | 97° |
| 2026-05-05 20:58 | -34.24802 | -69.34455 | 31214 ft | 525 kts | 97° |
| 2026-05-05 20:59 | -34.25390 | -69.30101 | 31528 ft | 526 kts | 97° |
| 2026-05-05 20:59 | -34.25977 | -69.25742 | 31817 ft | 526 kts | 97° |
| 2026-05-05 20:59 | -34.26564 | -69.21371 | 32125 ft | 527 kts | 97° |
| 2026-05-05 20:59 | -34.27146 | -69.17023 | 32430 ft | 528 kts | 97° |
| 2026-05-05 21:00 | -34.27731 | -69.12639 | 32742 ft | 528 kts | 97° |
| 2026-05-05 21:00 | -34.28316 | -69.08251 | 33038 ft | 528 kts | 97° |
| 2026-05-05 21:00 | -34.28899 | -69.03863 | 33371 ft | 528 kts | 97° |
| 2026-05-05 21:00 | -34.29478 | -68.99472 | 33661 ft | 529 kts | 97° |
| 2026-05-05 21:01 | -34.30054 | -68.95074 | 33952 ft | 529 kts | 97° |
| 2026-05-05 21:01 | -34.30626 | -68.90684 | 34198 ft | 529 kts | 97° |
| 2026-05-05 21:01 | -34.31198 | -68.86286 | 34422 ft | 530 kts | 97° |
| 2026-05-05 21:01 | -34.31769 | -68.81882 | 34594 ft | 531 kts | 97° |
| 2026-05-05 21:02 | -34.32343 | -68.77450 | 34794 ft | 532 kts | 97° |
| 2026-05-05 21:02 | -34.32916 | -68.73013 | 34987 ft | 533 kts | 97° |
| 2026-05-05 21:02 | -34.33486 | -68.68581 | 35185 ft | 533 kts | 97° |
| 2026-05-05 21:02 | -34.34056 | -68.64139 | 35446 ft | 533 kts | 97° |
| 2026-05-05 21:03 | -34.34622 | -68.59716 | 35728 ft | 531 kts | 97° |
| 2026-05-05 21:03 | -34.35187 | -68.55292 | 35878 ft | 533 kts | 97° |
| 2026-05-05 21:03 | -34.35744 | -68.50908 | 36006 ft | 534 kts | 97° |
| 2026-05-05 21:03 | -34.36302 | -68.46499 | 36154 ft | 535 kts | 97° |
| 2026-05-05 21:04 | -34.36866 | -68.42044 | 36310 ft | 536 kts | 97° |
| 2026-05-05 21:04 | -34.37429 | -68.37576 | 36473 ft | 536 kts | 97° |
| 2026-05-05 21:04 | -34.37990 | -68.33112 | 36631 ft | 537 kts | 97° |
| 2026-05-05 21:04 | -34.38553 | -68.28620 | 36782 ft | 538 kts | 97° |
| 2026-05-05 21:05 | -34.39112 | -68.24142 | 36932 ft | 538 kts | 97° |
| 2026-05-05 21:05 | -34.39670 | -68.19654 | 37077 ft | 539 kts | 97° |
| 2026-05-05 21:05 | -34.40784 | -68.10660 | 37303 ft | 541 kts | 97° |
| 2026-05-05 21:06 | -34.41344 | -68.06122 | 37451 ft | 541 kts | 97° |
| 2026-05-05 21:06 | -34.41899 | -68.01609 | 37587 ft | 542 kts | 97° |
| 2026-05-05 21:06 | -34.42454 | -67.97082 | 37718 ft | 543 kts | 97° |
| 2026-05-05 21:06 | -34.43009 | -67.92546 | 37840 ft | 543 kts | 97° |
| 2026-05-05 21:07 | -34.43561 | -67.88015 | 37971 ft | 544 kts | 97° |
| 2026-05-05 21:07 | -34.44115 | -67.83451 | 38090 ft | 544 kts | 97° |
| 2026-05-05 21:07 | -34.44658 | -67.78963 | 38203 ft | 545 kts | 97° |
| 2026-05-05 21:07 | -34.45196 | -67.74412 | 38317 ft | 545 kts | 96° |
| 2026-05-05 21:08 | -34.45724 | -67.69859 | 38425 ft | 545 kts | 96° |
| 2026-05-05 21:08 | -34.46256 | -67.65244 | 38522 ft | 546 kts | 96° |
| 2026-05-05 21:08 | -34.46782 | -67.60679 | 38635 ft | 545 kts | 96° |
| 2026-05-05 21:08 | -34.47306 | -67.56129 | 38759 ft | 545 kts | 96° |
| 2026-05-05 21:09 | -34.48343 | -67.47085 | 38845 ft | 544 kts | 96° |
| 2026-05-05 21:09 | -34.49380 | -67.37989 | 38845 ft | 544 kts | 96° |
| 2026-05-05 21:10 | -34.50409 | -67.28904 | 38847 ft | 544 kts | 96° |
| 2026-05-05 21:10 | -34.51432 | -67.19810 | 38829 ft | 544 kts | 96° |
| 2026-05-05 21:11 | -34.52450 | -67.10683 | 38875 ft | 546 kts | 96° |
| 2026-05-05 21:11 | -34.53461 | -67.01576 | 38839 ft | 542 kts | 96° |
| 2026-05-05 21:12 | -34.54456 | -66.92548 | 38839 ft | 544 kts | 96° |
| 2026-05-05 21:12 | -34.55293 | -66.84899 | 38839 ft | 546 kts | 96° |
| 2026-05-05 21:13 | -34.56292 | -66.75710 | 38842 ft | 551 kts | 96° |
| 2026-05-05 21:13 | -34.57287 | -66.66500 | 38843 ft | 556 kts | 96° |
| 2026-05-05 21:14 | -34.58288 | -66.57161 | 38843 ft | 560 kts | 96° |
| 2026-05-05 21:14 | -34.59289 | -66.47754 | 38847 ft | 562 kts | 96° |
| 2026-05-05 21:15 | -34.60284 | -66.38337 | 38848 ft | 562 kts | 96° |
| 2026-05-05 21:15 | -34.61269 | -66.28941 | 38858 ft | 559 kts | 96° |
| 2026-05-05 21:16 | -34.62242 | -66.19565 | 38851 ft | 561 kts | 96° |
| 2026-05-05 21:16 | -34.63215 | -66.10147 | 38861 ft | 563 kts | 96° |
| 2026-05-05 21:17 | -34.64182 | -66.00714 | 38859 ft | 562 kts | 96° |
| 2026-05-05 21:17 | -34.65140 | -65.91289 | 38854 ft | 562 kts | 96° |
| 2026-05-05 21:18 | -34.66085 | -65.81904 | 38867 ft | 563 kts | 96° |
| 2026-05-05 21:18 | -34.67039 | -65.72376 | 38860 ft | 563 kts | 96° |
| 2026-05-05 21:19 | -34.67978 | -65.62926 | 38867 ft | 562 kts | 96° |
| 2026-05-05 21:19 | -34.68907 | -65.53473 | 38868 ft | 562 kts | 96° |
| 2026-05-05 21:20 | -34.69823 | -65.44109 | 38869 ft | 562 kts | 96° |
| 2026-05-05 21:20 | -34.70739 | -65.34662 | 38869 ft | 562 kts | 96° |
| 2026-05-05 21:21 | -34.71642 | -65.25231 | 38870 ft | 563 kts | 96° |
| 2026-05-05 21:21 | -34.72543 | -65.15750 | 38879 ft | 565 kts | 96° |
| 2026-05-05 21:22 | -34.73443 | -65.06228 | 38869 ft | 567 kts | 96° |
| 2026-05-05 21:22 | -34.74330 | -64.96748 | 38880 ft | 568 kts | 96° |
| 2026-05-05 21:23 | -34.75215 | -64.87195 | 38876 ft | 569 kts | 96° |
| 2026-05-05 21:23 | -34.76094 | -64.77645 | 38881 ft | 567 kts | 96° |
| 2026-05-05 21:24 | -34.76965 | -64.68089 | 38881 ft | 568 kts | 96° |
| 2026-05-05 21:24 | -34.77834 | -64.58537 | 38881 ft | 568 kts | 96° |
| 2026-05-05 21:25 | -34.78706 | -64.48989 | 38881 ft | 568 kts | 96° |
| 2026-05-05 21:25 | -34.79570 | -64.39438 | 38881 ft | 568 kts | 96° |
| 2026-05-05 21:26 | -34.80424 | -64.29882 | 38881 ft | 569 kts | 96° |
| 2026-05-05 21:26 | -34.81275 | -64.20291 | 38877 ft | 569 kts | 96° |
| 2026-05-05 21:27 | -34.82118 | -64.10707 | 38880 ft | 569 kts | 96° |
| 2026-05-05 21:27 | -34.82951 | -64.01137 | 38876 ft | 568 kts | 96° |
| 2026-05-05 21:28 | -34.83779 | -63.91543 | 38881 ft | 569 kts | 96° |
| 2026-05-05 21:28 | -34.84591 | -63.82017 | 38881 ft | 569 kts | 96° |
| 2026-05-05 21:29 | -34.85400 | -63.72426 | 38869 ft | 568 kts | 96° |
| 2026-05-05 21:29 | -34.86200 | -63.62856 | 38881 ft | 568 kts | 96° |
| 2026-05-05 21:30 | -34.86995 | -63.53268 | 38879 ft | 569 kts | 96° |
| 2026-05-05 21:30 | -34.87789 | -63.43677 | 38881 ft | 569 kts | 96° |
| 2026-05-05 21:31 | -34.88579 | -63.34085 | 38895 ft | 568 kts | 96° |
| 2026-05-05 21:31 | -34.89357 | -63.24523 | 38878 ft | 567 kts | 96° |
| 2026-05-05 21:32 | -34.90129 | -63.14953 | 38881 ft | 568 kts | 96° |
| 2026-05-05 21:32 | -34.90892 | -63.05380 | 38886 ft | 565 kts | 96° |
| 2026-05-05 21:33 | -34.91645 | -62.95840 | 38886 ft | 566 kts | 96° |
| 2026-05-05 21:33 | -34.92392 | -62.86287 | 38892 ft | 566 kts | 96° |
| 2026-05-05 21:34 | -34.93131 | -62.76730 | 38891 ft | 565 kts | 96° |
| 2026-05-05 21:34 | -34.93857 | -62.67255 | 38892 ft | 565 kts | 96° |
| 2026-05-05 21:35 | -34.94575 | -62.57724 | 38892 ft | 563 kts | 96° |
| 2026-05-05 21:35 | -34.95278 | -62.48212 | 38893 ft | 561 kts | 96° |
| 2026-05-05 21:36 | -34.95968 | -62.38786 | 38895 ft | 548 kts | 96° |
| 2026-05-05 21:36 | -34.96300 | -62.34218 | 38896 ft | 535 kts | 96° |
| 2026-05-05 21:36 | -34.96626 | -62.29710 | 38900 ft | 534 kts | 96° |
| 2026-05-05 21:37 | -34.96997 | -62.20614 | 38878 ft | 539 kts | 92° |
| 2026-05-05 21:37 | -34.97233 | -62.11481 | 38900 ft | 538 kts | 92° |
| 2026-05-05 21:38 | -34.97506 | -62.02366 | 38903 ft | 538 kts | 92° |
| 2026-05-05 21:38 | -34.97792 | -61.93236 | 38902 ft | 538 kts | 92° |
| 2026-05-05 21:39 | -34.98073 | -61.84128 | 38902 ft | 535 kts | 92° |
| 2026-05-05 21:39 | -34.98344 | -61.75104 | 38899 ft | 536 kts | 92° |
| 2026-05-05 21:40 | -34.98609 | -61.66017 | 38895 ft | 536 kts | 92° |
| 2026-05-05 21:40 | -34.98868 | -61.56935 | 38903 ft | 536 kts | 92° |
| 2026-05-05 21:41 | -34.99110 | -61.47849 | 38908 ft | 536 kts | 92° |
| 2026-05-05 21:41 | -34.99346 | -61.38753 | 38903 ft | 536 kts | 92° |
| 2026-05-05 21:42 | -34.99575 | -61.29662 | 38907 ft | 534 kts | 92° |
| 2026-05-05 21:42 | -34.99797 | -61.20615 | 38877 ft | 534 kts | 92° |
| 2026-05-05 21:43 | -34.99846 | -61.16074 | 38651 ft | 534 kts | 86° |
| 2026-05-05 21:43 | -34.99491 | -61.11612 | 38121 ft | 535 kts | 82° |
| 2026-05-05 21:43 | -34.99044 | -61.07109 | 37480 ft | 534 kts | 82° |
| 2026-05-05 21:43 | -34.98589 | -61.02618 | 36787 ft | 533 kts | 82° |
| 2026-05-05 21:44 | -34.98141 | -60.98140 | 36150 ft | 531 kts | 82° |
| 2026-05-05 21:44 | -34.97699 | -60.93667 | 35467 ft | 531 kts | 82° |
| 2026-05-05 21:44 | -34.97260 | -60.89201 | 34599 ft | 528 kts | 82° |
| 2026-05-05 21:44 | -34.96825 | -60.84775 | 33636 ft | 524 kts | 82° |
| 2026-05-05 21:45 | -34.96390 | -60.80364 | 32601 ft | 521 kts | 82° |
| 2026-05-05 21:45 | -34.95958 | -60.76000 | 31891 ft | 517 kts | 82° |
| 2026-05-05 21:45 | -34.95524 | -60.71635 | 31117 ft | 517 kts | 82° |
| 2026-05-05 21:45 | -34.95098 | -60.67357 | 30582 ft | 511 kts | 82° |
| 2026-05-05 21:46 | -34.94669 | -60.63072 | 29948 ft | 509 kts | 82° |
| 2026-05-05 21:46 | -34.94242 | -60.58811 | 29346 ft | 503 kts | 82° |
| 2026-05-05 21:46 | -34.93817 | -60.54600 | 28765 ft | 497 kts | 82° |
| 2026-05-05 21:46 | -34.93532 | -60.51775 | 28365 ft | 493 kts | 82° |
| 2026-05-05 21:47 | -34.93114 | -60.47652 | 27776 ft | 488 kts | 82° |
| 2026-05-05 21:47 | -34.92698 | -60.43568 | 27197 ft | 483 kts | 82° |
| 2026-05-05 21:47 | -34.92153 | -60.38228 | 26436 ft | 477 kts | 82° |
| 2026-05-05 21:47 | -34.91876 | -60.35523 | 26049 ft | 474 kts | 82° |
| 2026-05-05 21:48 | -34.91473 | -60.31596 | 25486 ft | 470 kts | 82° |
| 2026-05-05 21:48 | -34.91067 | -60.27660 | 24867 ft | 468 kts | 82° |
| 2026-05-05 21:48 | -34.90662 | -60.23747 | 24327 ft | 463 kts | 82° |
| 2026-05-05 21:48 | -34.90259 | -60.19861 | 23760 ft | 460 kts | 82° |
| 2026-05-05 21:49 | -34.89858 | -60.16003 | 23124 ft | 457 kts | 82° |
| 2026-05-05 21:49 | -34.89460 | -60.12185 | 22569 ft | 451 kts | 82° |
| 2026-05-05 21:49 | -34.89065 | -60.08417 | 21996 ft | 446 kts | 82° |
| 2026-05-05 21:49 | -34.88671 | -60.04666 | 21439 ft | 442 kts | 82° |
| 2026-05-05 21:50 | -34.88283 | -60.00976 | 20877 ft | 437 kts | 82° |
| 2026-05-05 21:50 | -34.87896 | -59.97316 | 20314 ft | 433 kts | 82° |
| 2026-05-05 21:50 | -34.87516 | -59.93733 | 19765 ft | 430 kts | 82° |
| 2026-05-05 21:50 | -34.87133 | -59.90131 | 19177 ft | 427 kts | 82° |
| 2026-05-05 21:51 | -34.86752 | -59.86551 | 18644 ft | 424 kts | 82° |
| 2026-05-05 21:51 | -34.86372 | -59.82994 | 18044 ft | 422 kts | 82° |
| 2026-05-05 21:51 | -34.85995 | -59.79472 | 17493 ft | 417 kts | 82° |
| 2026-05-05 21:51 | -34.85621 | -59.75994 | 16943 ft | 412 kts | 82° |
| 2026-05-05 21:52 | -34.84882 | -59.69134 | 15847 ft | 404 kts | 82° |
| 2026-05-05 21:52 | -34.84516 | -59.65761 | 15304 ft | 401 kts | 82° |
| 2026-05-05 21:52 | -34.84153 | -59.62410 | 14756 ft | 397 kts | 82° |
| 2026-05-05 21:53 | -34.83790 | -59.59080 | 14204 ft | 395 kts | 82° |
| 2026-05-05 21:53 | -34.83430 | -59.55782 | 13633 ft | 393 kts | 82° |
| 2026-05-05 21:53 | -34.83071 | -59.52515 | 13113 ft | 387 kts | 82° |
| 2026-05-05 21:53 | -34.82715 | -59.49276 | 12585 ft | 383 kts | 82° |
| 2026-05-05 21:54 | -34.82362 | -59.46074 | 12052 ft | 379 kts | 82° |
| 2026-05-05 21:54 | -34.82017 | -59.42945 | 11535 ft | 375 kts | 82° |
| 2026-05-05 21:54 | -34.81671 | -59.39821 | 11014 ft | 372 kts | 83° |
| 2026-05-05 21:54 | -34.81324 | -59.36702 | 10539 ft | 368 kts | 83° |
| 2026-05-05 21:55 | -34.80987 | -59.33674 | 10383 ft | 354 kts | 83° |
| 2026-05-05 21:55 | -34.80663 | -59.30769 | 10254 ft | 340 kts | 83° |
| 2026-05-05 21:55 | -34.80347 | -59.27938 | 10134 ft | 326 kts | 83° |
| 2026-05-05 21:55 | -34.80051 | -59.25294 | 10019 ft | 313 kts | 83° |
| 2026-05-05 21:56 | -34.79756 | -59.22658 | 9704 ft | 308 kts | 83° |
| 2026-05-05 21:56 | -34.79472 | -59.20106 | 9248 ft | 308 kts | 83° |
| 2026-05-05 21:56 | -34.79184 | -59.17514 | 8789 ft | 308 kts | 82° |
| 2026-05-05 21:56 | -34.78897 | -59.14948 | 8352 ft | 307 kts | 82° |
| 2026-05-05 21:57 | -34.78609 | -59.12374 | 7923 ft | 307 kts | 81° |
| 2026-05-05 21:57 | -34.78321 | -59.09807 | 7402 ft | 305 kts | 80° |
| 2026-05-05 21:57 | -34.78036 | -59.07267 | 7008 ft | 303 kts | 80° |
| 2026-05-05 21:57 | -34.77750 | -59.04730 | 6638 ft | 302 kts | 79° |
| 2026-05-05 21:58 | -34.77462 | -59.02196 | 6239 ft | 302 kts | 79° |
| 2026-05-05 21:58 | -34.77172 | -58.99671 | 5847 ft | 300 kts | 79° |
| 2026-05-05 21:58 | -34.76889 | -58.97203 | 5481 ft | 298 kts | 80° |
| 2026-05-05 21:58 | -34.76604 | -58.94718 | 5333 ft | 287 kts | 80° |
| 2026-05-05 21:59 | -34.76342 | -58.92416 | 5206 ft | 267 kts | 80° |
| 2026-05-05 21:59 | -34.76115 | -58.90204 | 4996 ft | 247 kts | 84° |
| 2026-05-05 21:59 | -34.76140 | -58.88077 | 4895 ft | 252 kts | 95° |
| 2026-05-05 21:59 | -34.76404 | -58.86024 | 4780 ft | 238 kts | 101° |
| 2026-05-05 22:00 | -34.76740 | -58.84126 | 4544 ft | 221 kts | 102° |
| 2026-05-05 22:00 | -34.77064 | -58.82325 | 4313 ft | 219 kts | 102° |
| 2026-05-05 22:00 | -34.77388 | -58.80521 | 4074 ft | 215 kts | 102° |
| 2026-05-05 22:00 | -34.77693 | -58.78825 | 3830 ft | 197 kts | 102° |
| 2026-05-05 22:01 | -34.77971 | -58.77274 | 3580 ft | 184 kts | 101° |
| 2026-05-05 22:01 | -34.78235 | -58.75805 | 3346 ft | 172 kts | 101° |
| 2026-05-05 22:01 | -34.78482 | -58.74428 | 3132 ft | 161 kts | 101° |
| 2026-05-05 22:01 | -34.78717 | -58.73116 | 2933 ft | 158 kts | 100° |
| 2026-05-05 22:02 | -34.78942 | -58.71864 | 2736 ft | 146 kts | 100° |
| 2026-05-05 22:02 | -34.79156 | -58.70670 | 2550 ft | 146 kts | 100° |
| 2026-05-05 22:02 | -34.79371 | -58.69469 | 2356 ft | 143 kts | 101° |
| 2026-05-05 22:02 | -34.79579 | -58.68309 | 2171 ft | 138 kts | 101° |
| 2026-05-05 22:03 | -34.79783 | -58.67174 | 1990 ft | 137 kts | 101° |
| 2026-05-05 22:03 | -34.79985 | -58.66048 | 1820 ft | 135 kts | 101° |
| 2026-05-05 22:03 | -34.80185 | -58.64934 | 1643 ft | 135 kts | 101° |
| 2026-05-05 22:03 | -34.80383 | -58.63830 | 1456 ft | 133 kts | 100° |
| 2026-05-05 22:04 | -34.80580 | -58.62734 | 1282 ft | 133 kts | 100° |
| 2026-05-05 22:04 | -34.80777 | -58.61633 | 1110 ft | 132 kts | 101° |
| 2026-05-05 22:04 | -34.80971 | -58.60549 | 943 ft | 131 kts | 101° |
| 2026-05-05 22:04 | -34.81166 | -58.59463 | 781 ft | 130 kts | 102° |
| 2026-05-05 22:05 | -34.81358 | -58.58396 | 611 ft | 130 kts | 101° |
| 2026-05-05 22:05 | -34.81553 | -58.57314 | 420 ft | 132 kts | 102° |
| 2026-05-05 22:05 | -34.81743 | -58.56229 | 260 ft | 130 kts | 101° |
| 2026-05-05 22:05 | -34.81939 | -58.55154 | 100 ft | 129 kts | 102° |
| 2026-05-05 22:06 | -34.82119 | -58.54153 | 71 ft | 100 kts | 102° |
| 2026-05-05 22:06 | -34.82246 | -58.53445 | 70 ft | 79 kts | 102° |
| 2026-05-05 22:06 | -34.82350 | -58.52855 | 66 ft | 60 kts | 102° |
| 2026-05-05 22:06 | -34.82433 | -58.52385 | 64 ft | 56 kts | 102° |
| 2026-05-05 22:07 | -34.82513 | -58.51927 | 60 ft | 25 kts | 97° |
| 2026-05-05 22:07 | -34.82432 | -58.51811 | 66 ft | 20 kts | 13° |
| 2026-05-05 22:07 | -34.82293 | -58.51780 | 61 ft | 11 kts | 351° |
| 2026-05-05 22:07 | -34.82259 | -58.51842 | 62 ft | 10 kts | 285° |
| 2026-05-05 22:08 | -34.82241 | -58.51941 | 67 ft | 14 kts | 282° |
| 2026-05-05 22:08 | -34.82217 | -58.52064 | 66 ft | 16 kts | 284° |
| 2026-05-05 22:08 | -34.82187 | -58.52211 | 66 ft | 19 kts | 284° |
| 2026-05-05 22:08 | -34.82153 | -58.52379 | 59 ft | 22 kts | 284° |
| 2026-05-05 22:09 | -34.82115 | -58.52565 | 68 ft | 24 kts | 283° |
| 2026-05-05 22:09 | -34.82076 | -58.52769 | 61 ft | 26 kts | 283° |
| 2026-05-05 22:09 | -34.82036 | -58.52977 | 63 ft | 25 kts | 284° |
| 2026-05-05 22:09 | -34.81995 | -58.53168 | 68 ft | 22 kts | 283° |
| 2026-05-05 22:10 | -34.81961 | -58.53336 | 65 ft | 19 kts | 284° |
| 2026-05-05 22:10 | -34.81933 | -58.53486 | 66 ft | 17 kts | 282° |
| 2026-05-05 22:10 | -34.81898 | -58.53616 | 66 ft | 15 kts | 306° |
| 2026-05-05 22:10 | -34.81818 | -58.53682 | 66 ft | 13 kts | 335° |
| 2026-05-05 22:11 | -34.81740 | -58.53727 | 68 ft | 12 kts | 330° |
| 2026-05-05 22:11 | -34.81675 | -58.53773 | 62 ft | 10 kts | 331° |
| 2026-05-05 22:11 | -34.81669 | -58.53813 | 63 ft | 4 kts | 223° |
| 2026-05-05 22:11 | -34.81685 | -58.53833 | 69 ft | 2 kts | 235° |
| 2026-05-05 22:12 | -34.81688 | -58.53850 | 60 ft | 6 kts | 263° |
| 2026-05-05 22:12 | -34.81656 | -58.53891 | 64 ft | 10 kts | 330° |
| 2026-05-05 22:12 | -34.81594 | -58.53960 | 63 ft | 1 kts | 315° |
| 2026-05-05 22:12 | -34.81589 | -58.53967 | 61 ft | 0 kts | 314° |